sensor_id;sensor_type;location;lat;lon;timestamp;P1;durP1;ratioP1;P2;durP2;ratioP2
74981;SDS011;63532;50.766;18.944;2024-02-23T07:41:02;3.40;;;1.80;;
74981;SDS011;63532;50.766;18.944;2024-02-23T07:44:07;6.30;;;1.80;;
74981;SDS011;63532;50.766;18.944;2024-02-23T07:47:12;3.72;;;2.05;;
74981;SDS011;63532;50.766;18.944;2024-02-23T07:50:17;3.95;;;1.70;;
74981;SDS011;63532;50.766;18.944;2024-02-23T07:53:21;3.83;;;1.80;;
74981;SDS011;63532;50.766;18.944;2024-02-23T07:56:27;5.43;;;2.05;;
74981;SDS011;63532;50.766;18.944;2024-02-23T07:59:32;7.22;;;2.10;;
74981;SDS011;63532;50.766;18.944;2024-02-23T08:02:38;8.18;;;2.30;;
74981;SDS011;63532;50.766;18.944;2024-02-23T08:05:43;5.25;;;2.35;;
74981;SDS011;63532;50.766;18.944;2024-02-23T08:08:48;5.88;;;2.33;;
74981;SDS011;63532;50.766;18.944;2024-02-23T08:11:54;5.18;;;2.30;;
74981;SDS011;63532;50.766;18.944;2024-02-23T08:14:59;6.90;;;2.53;;
74981;SDS011;63532;50.766;18.944;2024-02-23T08:18:04;4.38;;;2.00;;
74981;SDS011;63532;50.766;18.944;2024-02-23T08:21:10;5.55;;;2.17;;
74981;SDS011;63532;50.766;18.944;2024-02-23T08:24:15;7.55;;;2.72;;
74981;SDS011;63532;50.766;18.944;2024-02-23T08:27:21;6.70;;;2.85;;
74981;SDS011;63532;50.766;18.944;2024-02-23T08:30:26;5.57;;;2.25;;
74981;SDS011;63532;50.766;18.944;2024-02-23T08:33:31;3.47;;;1.95;;
74981;SDS011;63532;50.766;18.944;2024-02-23T08:36:35;12.52;;;2.53;;
74981;SDS011;63532;50.766;18.944;2024-02-23T08:39:40;6.03;;;2.38;;
74981;SDS011;63532;50.766;18.944;2024-02-23T08:42:46;7.57;;;3.10;;
74981;SDS011;63532;50.766;18.944;2024-02-23T08:45:52;5.47;;;2.45;;
74981;SDS011;63532;50.766;18.944;2024-02-23T08:49:00;7.18;;;2.13;;
74981;SDS011;63532;50.766;18.944;2024-02-23T08:52:04;6.35;;;2.38;;
74981;SDS011;63532;50.766;18.944;2024-02-23T08:55:09;6.88;;;2.83;;
74981;SDS011;63532;50.766;18.944;2024-02-23T08:58:16;6.47;;;2.90;;
74981;SDS011;63532;50.766;18.944;2024-02-23T09:01:20;7.85;;;3.20;;
74981;SDS011;63532;50.766;18.944;2024-02-23T09:04:25;7.07;;;2.90;;
74981;SDS011;63532;50.766;18.944;2024-02-23T09:07:30;6.57;;;3.20;;
74981;SDS011;63532;50.766;18.944;2024-02-23T09:10:35;8.40;;;3.38;;
74981;SDS011;63532;50.766;18.944;2024-02-23T09:13:41;5.85;;;2.63;;
74981;SDS011;63532;50.766;18.944;2024-02-23T09:16:45;5.75;;;2.97;;
74981;SDS011;63532;50.766;18.944;2024-02-23T09:19:52;7.88;;;2.80;;
74981;SDS011;63532;50.766;18.944;2024-02-23T09:22:57;12.02;;;3.50;;
74981;SDS011;63532;50.766;18.944;2024-02-23T09:26:08;9.57;;;3.50;;
74981;SDS011;63532;50.766;18.944;2024-02-23T09:29:16;7.18;;;2.72;;
74981;SDS011;63532;50.766;18.944;2024-02-23T09:32:20;7.32;;;3.13;;
74981;SDS011;63532;50.766;18.944;2024-02-23T09:35:25;6.40;;;3.10;;
74981;SDS011;63532;50.766;18.944;2024-02-23T09:38:30;8.05;;;3.55;;
74981;SDS011;63532;50.766;18.944;2024-02-23T09:41:35;9.38;;;3.97;;
74981;SDS011;63532;50.766;18.944;2024-02-23T09:44:44;11.45;;;4.05;;
74981;SDS011;63532;50.766;18.944;2024-02-23T09:47:50;8.18;;;3.63;;
74981;SDS011;63532;50.766;18.944;2024-02-23T09:50:57;12.63;;;4.70;;
74981;SDS011;63532;50.766;18.944;2024-02-23T09:54:03;9.60;;;4.05;;
74981;SDS011;63532;50.766;18.944;2024-02-23T09:57:09;9.13;;;4.20;;
74981;SDS011;63532;50.766;18.944;2024-02-23T10:00:17;7.50;;;3.15;;
74981;SDS011;63532;50.766;18.944;2024-02-23T10:03:21;10.55;;;3.15;;
74981;SDS011;63532;50.766;18.944;2024-02-23T10:06:29;9.27;;;2.88;;
74981;SDS011;63532;50.766;18.944;2024-02-23T10:09:33;5.18;;;2.75;;
74981;SDS011;63532;50.766;18.944;2024-02-23T10:12:40;19.90;;;8.98;;
74981;SDS011;63532;50.766;18.944;2024-02-23T10:16:13;7.85;;;3.45;;
74981;SDS011;63532;50.766;18.944;2024-02-23T10:19:17;6.68;;;2.70;;
74981;SDS011;63532;50.766;18.944;2024-02-23T10:22:22;6.03;;;2.97;;
74981;SDS011;63532;50.766;18.944;2024-02-23T10:25:27;4.68;;;2.70;;
74981;SDS011;63532;50.766;18.944;2024-02-23T10:28:32;12.95;;;4.70;;
74981;SDS011;63532;50.766;18.944;2024-02-23T10:31:41;9.57;;;3.30;;
74981;SDS011;63532;50.766;18.944;2024-02-23T10:34:52;6.18;;;2.45;;
74981;SDS011;63532;50.766;18.944;2024-02-23T10:37:59;6.57;;;2.70;;
74981;SDS011;63532;50.766;18.944;2024-02-23T10:41:05;14.15;;;4.47;;
74981;SDS011;63532;50.766;18.944;2024-02-23T10:44:11;58.40;;;20.63;;
74981;SDS011;63532;50.766;18.944;2024-02-23T10:47:20;14.00;;;7.18;;
74981;SDS011;63532;50.766;18.944;2024-02-23T10:50:26;6.05;;;3.03;;
74981;SDS011;63532;50.766;18.944;2024-02-23T10:53:31;6.05;;;2.80;;
74981;SDS011;63532;50.766;18.944;2024-02-23T10:56:37;18.83;;;6.03;;
74981;SDS011;63532;50.766;18.944;2024-02-23T10:59:44;6.72;;;3.00;;
74981;SDS011;63532;50.766;18.944;2024-02-23T11:02:52;7.18;;;2.85;;
74981;SDS011;63532;50.766;18.944;2024-02-23T11:05:59;6.40;;;2.85;;
74981;SDS011;63532;50.766;18.944;2024-02-23T11:09:07;4.63;;;2.55;;
74981;SDS011;63532;50.766;18.944;2024-02-23T11:12:22;5.38;;;2.05;;
74981;SDS011;63532;50.766;18.944;2024-02-23T11:18:39;17.42;;;4.82;;
74981;SDS011;63532;50.766;18.944;2024-02-23T11:21:44;10.65;;;3.65;;
74981;SDS011;63532;50.766;18.944;2024-02-23T11:24:59;9.80;;;2.83;;
74981;SDS011;63532;50.766;18.944;2024-02-23T11:28:07;5.45;;;2.40;;
74981;SDS011;63532;50.766;18.944;2024-02-23T11:31:13;15.88;;;4.55;;
74981;SDS011;63532;50.766;18.944;2024-02-23T11:34:22;8.40;;;2.83;;
74981;SDS011;63532;50.766;18.944;2024-02-23T11:37:28;7.05;;;2.97;;
74981;SDS011;63532;50.766;18.944;2024-02-23T11:40:32;13.65;;;4.80;;
74981;SDS011;63532;50.766;18.944;2024-02-23T11:43:38;6.68;;;2.92;;
74981;SDS011;63532;50.766;18.944;2024-02-23T11:46:46;17.80;;;5.68;;
74981;SDS011;63532;50.766;18.944;2024-02-23T11:49:52;6.03;;;3.15;;
74981;SDS011;63532;50.766;18.944;2024-02-23T11:52:57;6.18;;;2.70;;
74981;SDS011;63532;50.766;18.944;2024-02-23T11:56:02;5.47;;;2.97;;
74981;SDS011;63532;50.766;18.944;2024-02-23T11:59:08;5.32;;;2.47;;
74981;SDS011;63532;50.766;18.944;2024-02-23T12:02:13;9.02;;;2.80;;
74981;SDS011;63532;50.766;18.944;2024-02-23T12:05:19;7.53;;;3.13;;
74981;SDS011;63532;50.766;18.944;2024-02-23T12:08:24;5.07;;;2.55;;
74981;SDS011;63532;50.766;18.944;2024-02-23T12:11:30;7.10;;;2.63;;
74981;SDS011;63532;50.766;18.944;2024-02-23T12:14:35;6.28;;;2.35;;
74981;SDS011;63532;50.766;18.944;2024-02-23T12:17:46;5.88;;;2.55;;
74981;SDS011;63532;50.766;18.944;2024-02-23T12:20:54;8.80;;;3.00;;
74981;SDS011;63532;50.766;18.944;2024-02-23T12:24:04;4.18;;;2.22;;
74981;SDS011;63532;50.766;18.944;2024-02-23T12:27:10;24.27;;;7.18;;
74981;SDS011;63532;50.766;18.944;2024-02-23T12:30:14;40.60;;;10.65;;
74981;SDS011;63532;50.766;18.944;2024-02-23T12:33:20;16.40;;;4.97;;
74981;SDS011;63532;50.766;18.944;2024-02-23T12:36:26;6.97;;;3.33;;
74981;SDS011;63532;50.766;18.944;2024-02-23T12:39:33;7.60;;;3.40;;
74981;SDS011;63532;50.766;18.944;2024-02-23T12:42:37;8.15;;;2.70;;
74981;SDS011;63532;50.766;18.944;2024-02-23T12:45:42;7.55;;;2.53;;
74981;SDS011;63532;50.766;18.944;2024-02-23T12:48:51;12.15;;;3.70;;
74981;SDS011;63532;50.766;18.944;2024-02-23T12:51:57;9.63;;;2.63;;
74981;SDS011;63532;50.766;18.944;2024-02-23T12:55:02;6.38;;;2.65;;
74981;SDS011;63532;50.766;18.944;2024-02-23T12:58:07;10.20;;;3.70;;
74981;SDS011;63532;50.766;18.944;2024-02-23T13:01:11;6.20;;;2.70;;
74981;SDS011;63532;50.766;18.944;2024-02-23T13:04:16;7.18;;;2.92;;
74981;SDS011;63532;50.766;18.944;2024-02-23T13:07:23;6.10;;;2.25;;
74981;SDS011;63532;50.766;18.944;2024-02-23T13:10:31;5.55;;;2.50;;
74981;SDS011;63532;50.766;18.944;2024-02-23T13:13:37;5.75;;;2.50;;
74981;SDS011;63532;50.766;18.944;2024-02-23T13:16:45;14.48;;;4.28;;
74981;SDS011;63532;50.766;18.944;2024-02-23T13:19:49;4.72;;;2.30;;
74981;SDS011;63532;50.766;18.944;2024-02-23T13:23:13;6.00;;;1.83;;
74981;SDS011;63532;50.766;18.944;2024-02-23T13:26:18;4.25;;;1.88;;
74981;SDS011;63532;50.766;18.944;2024-02-23T13:29:23;28.50;;;6.38;;
74981;SDS011;63532;50.766;18.944;2024-02-23T13:32:27;8.60;;;2.55;;
74981;SDS011;63532;50.766;18.944;2024-02-23T13:35:33;5.95;;;2.13;;
74981;SDS011;63532;50.766;18.944;2024-02-23T13:38:40;7.20;;;3.33;;
74981;SDS011;63532;50.766;18.944;2024-02-23T13:41:45;7.32;;;2.90;;
74981;SDS011;63532;50.766;18.944;2024-02-23T13:44:49;9.90;;;3.80;;
74981;SDS011;63532;50.766;18.944;2024-02-23T13:47:57;7.15;;;2.63;;
74981;SDS011;63532;50.766;18.944;2024-02-23T13:51:04;7.22;;;2.35;;
74981;SDS011;63532;50.766;18.944;2024-02-23T13:54:11;6.65;;;2.67;;
74981;SDS011;63532;50.766;18.944;2024-02-23T13:57:15;5.93;;;2.72;;
74981;SDS011;63532;50.766;18.944;2024-02-23T14:00:20;74.82;;;23.17;;
74981;SDS011;63532;50.766;18.944;2024-02-23T14:03:24;19.67;;;7.75;;
74981;SDS011;63532;50.766;18.944;2024-02-23T14:06:30;6.20;;;3.08;;
74981;SDS011;63532;50.766;18.944;2024-02-23T14:09:36;5.13;;;2.45;;
74981;SDS011;63532;50.766;18.944;2024-02-23T14:12:40;5.50;;;2.80;;
74981;SDS011;63532;50.766;18.944;2024-02-23T14:15:45;5.45;;;2.40;;
74981;SDS011;63532;50.766;18.944;2024-02-23T14:18:50;16.60;;;5.20;;
74981;SDS011;63532;50.766;18.944;2024-02-23T14:21:54;109.32;;;24.98;;
74981;SDS011;63532;50.766;18.944;2024-02-23T14:25:01;70.57;;;17.70;;
74981;SDS011;63532;50.766;18.944;2024-02-23T14:28:05;55.75;;;15.07;;
74981;SDS011;63532;50.766;18.944;2024-02-23T14:31:10;64.25;;;15.20;;
74981;SDS011;63532;50.766;18.944;2024-02-23T14:34:14;26.65;;;9.52;;
74981;SDS011;63532;50.766;18.944;2024-02-23T14:37:19;48.00;;;12.30;;
74981;SDS011;63532;50.766;18.944;2024-02-23T14:40:25;11.02;;;4.82;;
74981;SDS011;63532;50.766;18.944;2024-02-23T14:43:30;13.43;;;4.15;;
74981;SDS011;63532;50.766;18.944;2024-02-23T14:46:34;38.17;;;9.43;;
74981;SDS011;63532;50.766;18.944;2024-02-23T14:49:40;44.33;;;11.27;;
74981;SDS011;63532;50.766;18.944;2024-02-23T14:52:44;41.63;;;10.77;;
74981;SDS011;63532;50.766;18.944;2024-02-23T14:55:51;17.20;;;5.55;;
74981;SDS011;63532;50.766;18.944;2024-02-23T14:58:56;34.53;;;9.63;;
74981;SDS011;63532;50.766;18.944;2024-02-23T15:02:01;37.15;;;11.05;;
74981;SDS011;63532;50.766;18.944;2024-02-23T15:05:07;24.67;;;8.30;;
74981;SDS011;63532;50.766;18.944;2024-02-23T15:08:12;28.02;;;8.50;;
74981;SDS011;63532;50.766;18.944;2024-02-23T15:11:18;27.25;;;7.95;;
74981;SDS011;63532;50.766;18.944;2024-02-23T15:14:24;10.60;;;4.32;;
74981;SDS011;63532;50.766;18.944;2024-02-23T15:17:29;16.23;;;5.35;;
74981;SDS011;63532;50.766;18.944;2024-02-23T15:20:34;21.75;;;6.57;;
74981;SDS011;63532;50.766;18.944;2024-02-23T15:23:39;59.75;;;18.38;;
74981;SDS011;63532;50.766;18.944;2024-02-23T15:26:47;38.17;;;11.45;;
74981;SDS011;63532;50.766;18.944;2024-02-23T15:29:52;56.07;;;15.10;;
74981;SDS011;63532;50.766;18.944;2024-02-23T15:33:05;12.57;;;4.97;;
74981;SDS011;63532;50.766;18.944;2024-02-23T15:36:10;13.25;;;5.05;;
74981;SDS011;63532;50.766;18.944;2024-02-23T15:39:14;107.95;;;27.50;;
74981;SDS011;63532;50.766;18.944;2024-02-23T15:42:20;96.63;;;25.45;;
74981;SDS011;63532;50.766;18.944;2024-02-23T15:45:25;22.08;;;8.27;;
74981;SDS011;63532;50.766;18.944;2024-02-23T15:48:29;13.80;;;6.15;;
74981;SDS011;63532;50.766;18.944;2024-02-23T15:51:34;27.55;;;8.43;;
74981;SDS011;63532;50.766;18.944;2024-02-23T15:54:56;28.92;;;9.50;;
74981;SDS011;63532;50.766;18.944;2024-02-23T15:58:01;23.90;;;8.35;;
74981;SDS011;63532;50.766;18.944;2024-02-23T16:01:06;16.85;;;9.30;;
74981;SDS011;63532;50.766;18.944;2024-02-23T16:04:10;26.75;;;9.65;;
74981;SDS011;63532;50.766;18.944;2024-02-23T16:07:15;29.52;;;10.60;;
74981;SDS011;63532;50.766;18.944;2024-02-23T16:10:19;29.67;;;10.15;;
74981;SDS011;63532;50.766;18.944;2024-02-23T16:13:25;42.65;;;12.82;;
74981;SDS011;63532;50.766;18.944;2024-02-23T16:16:30;67.68;;;21.08;;
74981;SDS011;63532;50.766;18.944;2024-02-23T16:19:34;109.40;;;32.40;;
74981;SDS011;63532;50.766;18.944;2024-02-23T16:22:40;229.18;;;57.90;;
74981;SDS011;63532;50.766;18.944;2024-02-23T16:25:48;74.78;;;22.30;;
74981;SDS011;63532;50.766;18.944;2024-02-23T16:28:54;217.90;;;45.92;;
74981;SDS011;63532;50.766;18.944;2024-02-23T16:32:00;134.57;;;32.97;;
74981;SDS011;63532;50.766;18.944;2024-02-23T16:35:05;83.05;;;23.10;;
74981;SDS011;63532;50.766;18.944;2024-02-23T16:38:13;95.07;;;22.65;;
74981;SDS011;63532;50.766;18.944;2024-02-23T16:41:17;104.55;;;28.02;;
74981;SDS011;63532;50.766;18.944;2024-02-23T16:44:24;50.83;;;18.25;;
74981;SDS011;63532;50.766;18.944;2024-02-23T16:47:29;38.30;;;15.23;;
74981;SDS011;63532;50.766;18.944;2024-02-23T16:50:35;38.70;;;14.88;;
74981;SDS011;63532;50.766;18.944;2024-02-23T16:53:44;40.85;;;13.73;;
74981;SDS011;63532;50.766;18.944;2024-02-23T16:56:48;41.65;;;16.00;;
74981;SDS011;63532;50.766;18.944;2024-02-23T16:59:55;47.33;;;17.48;;
74981;SDS011;63532;50.766;18.944;2024-02-23T17:02:59;44.50;;;15.88;;
74981;SDS011;63532;50.766;18.944;2024-02-23T17:06:04;39.03;;;14.23;;
74981;SDS011;63532;50.766;18.944;2024-02-23T17:09:09;29.55;;;11.73;;
74981;SDS011;63532;50.766;18.944;2024-02-23T17:12:14;33.38;;;11.32;;
74981;SDS011;63532;50.766;18.944;2024-02-23T17:15:22;38.58;;;11.90;;
74981;SDS011;63532;50.766;18.944;2024-02-23T17:18:27;28.02;;;9.68;;
74981;SDS011;63532;50.766;18.944;2024-02-23T17:21:31;52.00;;;20.52;;
74981;SDS011;63532;50.766;18.944;2024-02-23T17:24:36;51.85;;;16.77;;
74981;SDS011;63532;50.766;18.944;2024-02-23T17:27:41;53.17;;;16.83;;
74981;SDS011;63532;50.766;18.944;2024-02-23T17:30:48;54.67;;;20.90;;
74981;SDS011;63532;50.766;18.944;2024-02-23T17:33:52;45.28;;;19.10;;
74981;SDS011;63532;50.766;18.944;2024-02-23T17:36:57;59.55;;;19.20;;
74981;SDS011;63532;50.766;18.944;2024-02-23T17:40:02;63.53;;;20.30;;
74981;SDS011;63532;50.766;18.944;2024-02-23T17:43:08;82.18;;;25.10;;
74981;SDS011;63532;50.766;18.944;2024-02-23T17:46:13;83.78;;;26.20;;
74981;SDS011;63532;50.766;18.944;2024-02-23T17:49:18;52.33;;;21.05;;
74981;SDS011;63532;50.766;18.944;2024-02-23T17:52:23;47.35;;;17.00;;
74981;SDS011;63532;50.766;18.944;2024-02-23T17:55:31;34.58;;;11.80;;
74981;SDS011;63532;50.766;18.944;2024-02-23T17:58:35;35.10;;;12.75;;
74981;SDS011;63532;50.766;18.944;2024-02-23T18:01:41;36.72;;;13.27;;
74981;SDS011;63532;50.766;18.944;2024-02-23T18:04:46;34.22;;;12.55;;
74981;SDS011;63532;50.766;18.944;2024-02-23T18:07:51;30.48;;;10.82;;
74981;SDS011;63532;50.766;18.944;2024-02-23T18:10:55;25.77;;;10.73;;
74981;SDS011;63532;50.766;18.944;2024-02-23T18:14:02;33.45;;;12.52;;
74981;SDS011;63532;50.766;18.944;2024-02-23T18:17:09;32.10;;;14.00;;
74981;SDS011;63532;50.766;18.944;2024-02-23T18:20:14;31.27;;;13.43;;
74981;SDS011;63532;50.766;18.944;2024-02-23T18:23:18;36.83;;;15.10;;
74981;SDS011;63532;50.766;18.944;2024-02-23T18:26:23;63.70;;;18.75;;
74981;SDS011;63532;50.766;18.944;2024-02-23T18:29:28;74.45;;;19.00;;
74981;SDS011;63532;50.766;18.944;2024-02-23T18:32:34;81.07;;;19.88;;
74981;SDS011;63532;50.766;18.944;2024-02-23T18:35:43;51.65;;;15.88;;
74981;SDS011;63532;50.766;18.944;2024-02-23T18:38:49;45.88;;;15.13;;
74981;SDS011;63532;50.766;18.944;2024-02-23T18:41:54;48.60;;;15.45;;
74981;SDS011;63532;50.766;18.944;2024-02-23T18:44:58;40.88;;;13.40;;
74981;SDS011;63532;50.766;18.944;2024-02-23T18:48:06;34.05;;;13.57;;
74981;SDS011;63532;50.766;18.944;2024-02-23T18:51:11;29.90;;;13.23;;
74981;SDS011;63532;50.766;18.944;2024-02-23T18:54:16;44.58;;;13.10;;
74981;SDS011;63532;50.766;18.944;2024-02-23T18:57:20;35.63;;;13.30;;
74981;SDS011;63532;50.766;18.944;2024-02-23T19:00:25;31.73;;;12.82;;
74981;SDS011;63532;50.766;18.944;2024-02-23T19:03:31;31.45;;;12.77;;
74981;SDS011;63532;50.766;18.944;2024-02-23T19:06:36;34.72;;;13.80;;
74981;SDS011;63532;50.766;18.944;2024-02-23T19:09:41;36.88;;;13.25;;
74981;SDS011;63532;50.766;18.944;2024-02-23T19:12:45;32.10;;;13.82;;
74981;SDS011;63532;50.766;18.944;2024-02-23T19:15:50;35.40;;;13.05;;
74981;SDS011;63532;50.766;18.944;2024-02-23T19:18:56;37.85;;;14.13;;
74981;SDS011;63532;50.766;18.944;2024-02-23T19:22:04;31.88;;;12.65;;
74981;SDS011;63532;50.766;18.944;2024-02-23T19:25:09;32.97;;;13.07;;
74981;SDS011;63532;50.766;18.944;2024-02-23T19:28:15;30.92;;;11.57;;
74981;SDS011;63532;50.766;18.944;2024-02-23T19:31:19;27.35;;;11.55;;
74981;SDS011;63532;50.766;18.944;2024-02-23T19:34:28;30.70;;;11.75;;
74981;SDS011;63532;50.766;18.944;2024-02-23T19:37:33;32.10;;;11.45;;
74981;SDS011;63532;50.766;18.944;2024-02-23T19:40:39;34.03;;;11.98;;
74981;SDS011;63532;50.766;18.944;2024-02-23T19:43:43;28.83;;;11.70;;
74981;SDS011;63532;50.766;18.944;2024-02-23T19:46:48;29.80;;;12.30;;
74981;SDS011;63532;50.766;18.944;2024-02-23T19:49:54;29.48;;;11.05;;
74981;SDS011;63532;50.766;18.944;2024-02-23T19:52:58;35.70;;;11.48;;
74981;SDS011;63532;50.766;18.944;2024-02-23T19:56:03;33.88;;;9.70;;
74981;SDS011;63532;50.766;18.944;2024-02-23T19:59:08;30.17;;;11.70;;
74981;SDS011;63532;50.766;18.944;2024-02-23T20:02:13;24.30;;;9.30;;
74981;SDS011;63532;50.766;18.944;2024-02-23T20:05:19;25.08;;;10.13;;
74981;SDS011;63532;50.766;18.944;2024-02-23T20:08:26;23.85;;;9.85;;
74981;SDS011;63532;50.766;18.944;2024-02-23T20:11:31;26.38;;;10.45;;
74981;SDS011;63532;50.766;18.944;2024-02-23T20:14:36;26.58;;;10.05;;
74981;SDS011;63532;50.766;18.944;2024-02-23T20:17:41;22.70;;;9.20;;
74981;SDS011;63532;50.766;18.944;2024-02-23T20:20:50;26.92;;;10.48;;
74981;SDS011;63532;50.766;18.944;2024-02-23T20:23:54;27.48;;;10.18;;
74981;SDS011;63532;50.766;18.944;2024-02-23T20:26:59;25.95;;;10.75;;
74981;SDS011;63532;50.766;18.944;2024-02-23T20:30:04;25.35;;;10.07;;
74981;SDS011;63532;50.766;18.944;2024-02-23T20:33:10;27.83;;;10.13;;
74981;SDS011;63532;50.766;18.944;2024-02-23T20:36:16;30.42;;;11.57;;
74981;SDS011;63532;50.766;18.944;2024-02-23T20:39:20;26.45;;;10.75;;
74981;SDS011;63532;50.766;18.944;2024-02-23T20:42:25;28.27;;;11.15;;
74981;SDS011;63532;50.766;18.944;2024-02-23T20:45:29;28.80;;;11.30;;
74981;SDS011;63532;50.766;18.944;2024-02-23T20:48:34;33.20;;;12.13;;
74981;SDS011;63532;50.766;18.944;2024-02-23T20:51:40;32.08;;;12.60;;
74981;SDS011;63532;50.766;18.944;2024-02-23T20:54:50;34.30;;;12.83;;
74981;SDS011;63532;50.766;18.944;2024-02-23T20:57:54;35.38;;;13.40;;
74981;SDS011;63532;50.766;18.944;2024-02-23T21:00:58;37.97;;;13.43;;
74981;SDS011;63532;50.766;18.944;2024-02-23T21:04:04;34.03;;;12.75;;
74981;SDS011;63532;50.766;18.944;2024-02-23T21:07:11;37.95;;;13.60;;
74981;SDS011;63532;50.766;18.944;2024-02-23T21:10:15;37.22;;;13.93;;
74981;SDS011;63532;50.766;18.944;2024-02-23T21:13:20;35.35;;;13.13;;
74981;SDS011;63532;50.766;18.944;2024-02-23T21:16:25;40.22;;;14.23;;
74981;SDS011;63532;50.766;18.944;2024-02-23T21:19:29;39.05;;;14.43;;
74981;SDS011;63532;50.766;18.944;2024-02-23T21:22:35;39.22;;;14.07;;
